Aérodrome :
LOGIN :

S'inscrire | Disclaimer

   EN    FR    IT 

 










Légende :    VFR   VFR Marginal   IFR   IFR Intensif   IFR Très Intensif
Visi : 
Plafond : 
>= 8 km
>= 3000ft
5 à 8 km
1000 à 3000 ft
1500m à 5 km
500 à 1000 ft
800 à 1500m
200 à 500 ft
< 800m
< 200 ft
Symboles :   Orages  Brouillard  Fortes neiges  Fortes précipitations  Vent > 20 kt
SIGMETs :   Divers  Orages  Givrage  Turbulence  Onde Orograph.  Cendres Volcan.







- Altitude de l'aérodrome : 187 ft


ETNW - Wunstorf AB

DERNIER METAR :
  • 141820Z 22009KT 9999 FEW015 SCT030 BKN060 03/01 Q0990 BLU BLU TEMPO GRN

METARs EXPIRÉS :
  • 141720Z 23008KT 9999 FEW012 BKN025 02/01 Q0991 BLU BLU TEMPO GRN
  • 141708Z 23009KT 9999 FEW007 FEW015CB BKN025 02/01 Q0991 BLU BLU TEMPO GRN
  • 141620Z 23011KT 9000 -SHRA SCT007 BKN012CB BKN027 03/01 Q0991 GRN BLU TEMPO GRN

TAF TAF ETNW
Valide du 14 à 18h jusqu'au 15 à 18h UTC


141720Z 1418/1518 21005KT 8000 NSW SCT020 BKN030
TEMPO 1418/1420 23012G22KT 4000 SHRA BKN010 BKN020TCU
PROB30 1502/1508 21008KT 3000 -SHRASN BKN010 BKN020 BY ETGL
Pas de NOTAMs connus pour ce terrain.



MET'MAP, la Météo Aéronautique d'un coup d'oeil ! - Copyright ORBIFLY Décembre 2007 - Disclaimer

ORBIFLY MET'MAP TEAM :

Programmation & Développement : Alexandra Zaïnal
Conception & Développement : Baudouin d'Aumeries
Co-Programmation & Développement : Marc-Olivier Méhu
Soutien technique & logistique : Manuel Goepfert

Contact : metmap@orbifly.com




SOURCES & CREDITS :

   NOAA